sensor_id;sensor_type;location;lat;lon;timestamp;P1;durP1;ratioP1;P2;durP2;ratioP2
10389;SDS011;5241;47.830;12.972;2023-02-05T00:01:05;6.30;;;5.10;;
10389;SDS011;5241;47.830;12.972;2023-02-05T00:03:31;7.53;;;4.90;;
10389;SDS011;5241;47.830;12.972;2023-02-05T00:05:59;7.33;;;5.43;;
10389;SDS011;5241;47.830;12.972;2023-02-05T00:08:24;7.07;;;4.90;;
10389;SDS011;5241;47.830;12.972;2023-02-05T00:10:51;6.33;;;4.93;;
10389;SDS011;5241;47.830;12.972;2023-02-05T00:13:17;6.70;;;4.93;;
10389;SDS011;5241;47.830;12.972;2023-02-05T00:15:43;6.27;;;4.77;;
10389;SDS011;5241;47.830;12.972;2023-02-05T00:18:09;6.47;;;4.97;;
10389;SDS011;5241;47.830;12.972;2023-02-05T00:20:34;6.23;;;4.77;;
10389;SDS011;5241;47.830;12.972;2023-02-05T00:23:00;6.10;;;4.80;;
10389;SDS011;5241;47.830;12.972;2023-02-05T00:25:26;5.87;;;4.73;;
10389;SDS011;5241;47.830;12.972;2023-02-05T00:27:52;7.33;;;5.10;;
10389;SDS011;5241;47.830;12.972;2023-02-05T00:30:18;8.27;;;5.63;;
10389;SDS011;5241;47.830;12.972;2023-02-05T00:32:43;6.97;;;5.67;;
10389;SDS011;5241;47.830;12.972;2023-02-05T00:35:09;6.77;;;5.43;;
10389;SDS011;5241;47.830;12.972;2023-02-05T00:37:34;7.13;;;5.57;;
10389;SDS011;5241;47.830;12.972;2023-02-05T00:40:00;7.40;;;5.20;;
10389;SDS011;5241;47.830;12.972;2023-02-05T00:42:26;7.97;;;5.40;;
10389;SDS011;5241;47.830;12.972;2023-02-05T00:44:51;6.00;;;4.87;;
10389;SDS011;5241;47.830;12.972;2023-02-05T00:47:17;7.77;;;5.50;;
10389;SDS011;5241;47.830;12.972;2023-02-05T00:49:42;7.37;;;5.33;;
10389;SDS011;5241;47.830;12.972;2023-02-05T00:52:08;6.60;;;5.33;;
10389;SDS011;5241;47.830;12.972;2023-02-05T00:54:33;6.47;;;5.20;;
10389;SDS011;5241;47.830;12.972;2023-02-05T00:56:59;5.93;;;4.97;;
10389;SDS011;5241;47.830;12.972;2023-02-05T00:59:24;7.33;;;5.20;;
10389;SDS011;5241;47.830;12.972;2023-02-05T01:01:50;6.97;;;5.53;;
10389;SDS011;5241;47.830;12.972;2023-02-05T01:04:15;6.03;;;5.00;;
10389;SDS011;5241;47.830;12.972;2023-02-05T01:06:41;6.27;;;4.90;;
10389;SDS011;5241;47.830;12.972;2023-02-05T01:09:06;7.87;;;6.13;;
10389;SDS011;5241;47.830;12.972;2023-02-05T01:11:32;6.93;;;5.37;;
10389;SDS011;5241;47.830;12.972;2023-02-05T01:13:58;9.00;;;5.63;;
10389;SDS011;5241;47.830;12.972;2023-02-05T01:16:23;6.77;;;4.97;;
10389;SDS011;5241;47.830;12.972;2023-02-05T01:18:49;7.93;;;5.20;;
10389;SDS011;5241;47.830;12.972;2023-02-05T01:21:14;5.63;;;4.50;;
10389;SDS011;5241;47.830;12.972;2023-02-05T01:23:40;7.00;;;4.93;;
10389;SDS011;5241;47.830;12.972;2023-02-05T01:26:06;6.00;;;4.50;;
10389;SDS011;5241;47.830;12.972;2023-02-05T01:28:31;5.17;;;4.30;;
10389;SDS011;5241;47.830;12.972;2023-02-05T01:30:57;6.07;;;4.90;;
10389;SDS011;5241;47.830;12.972;2023-02-05T01:33:23;5.17;;;4.27;;
10389;SDS011;5241;47.830;12.972;2023-02-05T01:35:48;6.47;;;4.60;;
10389;SDS011;5241;47.830;12.972;2023-02-05T01:38:14;5.60;;;4.40;;
10389;SDS011;5241;47.830;12.972;2023-02-05T01:40:39;7.63;;;4.23;;
10389;SDS011;5241;47.830;12.972;2023-02-05T01:43:10;7.57;;;4.47;;
10389;SDS011;5241;47.830;12.972;2023-02-05T01:48:28;6.20;;;4.27;;
10389;SDS011;5241;47.830;12.972;2023-02-05T01:51:03;6.53;;;4.80;;
10389;SDS011;5241;47.830;12.972;2023-02-05T01:53:32;7.27;;;5.10;;
10389;SDS011;5241;47.830;12.972;2023-02-05T01:56:01;7.17;;;5.07;;
10389;SDS011;5241;47.830;12.972;2023-02-05T01:58:31;7.53;;;5.80;;
10389;SDS011;5241;47.830;12.972;2023-02-05T02:01:01;7.60;;;5.63;;
10389;SDS011;5241;47.830;12.972;2023-02-05T02:03:27;5.40;;;4.77;;
10389;SDS011;5241;47.830;12.972;2023-02-05T02:05:55;6.30;;;4.57;;
10389;SDS011;5241;47.830;12.972;2023-02-05T02:08:21;5.60;;;4.90;;
10389;SDS011;5241;47.830;12.972;2023-02-05T02:10:47;7.43;;;5.03;;
10389;SDS011;5241;47.830;12.972;2023-02-05T02:13:15;6.60;;;5.10;;
10389;SDS011;5241;47.830;12.972;2023-02-05T02:15:44;7.33;;;5.40;;
10389;SDS011;5241;47.830;12.972;2023-02-05T02:18:10;6.60;;;5.07;;
10389;SDS011;5241;47.830;12.972;2023-02-05T02:21:11;7.07;;;5.30;;
10389;SDS011;5241;47.830;12.972;2023-02-05T02:29:48;7.10;;;5.20;;
10389;SDS011;5241;47.830;12.972;2023-02-05T02:32:34;7.33;;;5.43;;
10389;SDS011;5241;47.830;12.972;2023-02-05T02:35:32;6.23;;;4.87;;
10389;SDS011;5241;47.830;12.972;2023-02-05T02:38:24;7.50;;;5.57;;
10389;SDS011;5241;47.830;12.972;2023-02-05T02:40:58;5.53;;;4.93;;
10389;SDS011;5241;47.830;12.972;2023-02-05T02:43:31;7.27;;;5.13;;
10389;SDS011;5241;47.830;12.972;2023-02-05T02:46:08;6.43;;;4.90;;
10389;SDS011;5241;47.830;12.972;2023-02-05T02:48:48;7.00;;;5.37;;
10389;SDS011;5241;47.830;12.972;2023-02-05T02:51:17;7.77;;;5.30;;
10389;SDS011;5241;47.830;12.972;2023-02-05T02:53:46;7.33;;;5.40;;
10389;SDS011;5241;47.830;12.972;2023-02-05T02:56:17;8.00;;;5.47;;
10389;SDS011;5241;47.830;12.972;2023-02-05T02:58:45;6.60;;;5.37;;
10389;SDS011;5241;47.830;12.972;2023-02-05T03:01:18;6.50;;;5.10;;
10389;SDS011;5241;47.830;12.972;2023-02-05T03:03:57;7.30;;;5.80;;
10389;SDS011;5241;47.830;12.972;2023-02-05T03:06:26;6.80;;;5.50;;
10389;SDS011;5241;47.830;12.972;2023-02-05T03:08:57;9.27;;;5.90;;
10389;SDS011;5241;47.830;12.972;2023-02-05T03:11:25;7.70;;;5.53;;
10389;SDS011;5241;47.830;12.972;2023-02-05T03:13:51;7.37;;;5.60;;
10389;SDS011;5241;47.830;12.972;2023-02-05T03:16:19;7.00;;;5.60;;
10389;SDS011;5241;47.830;12.972;2023-02-05T03:18:45;8.07;;;5.63;;
10389;SDS011;5241;47.830;12.972;2023-02-05T03:21:14;8.23;;;6.10;;
10389;SDS011;5241;47.830;12.972;2023-02-05T03:23:42;9.40;;;5.90;;
10389;SDS011;5241;47.830;12.972;2023-02-05T03:26:31;6.37;;;5.57;;
10389;SDS011;5241;47.830;12.972;2023-02-05T03:28:56;7.97;;;5.80;;
10389;SDS011;5241;47.830;12.972;2023-02-05T03:34:18;9.10;;;6.53;;
10389;SDS011;5241;47.830;12.972;2023-02-05T03:37:15;9.17;;;6.93;;
10389;SDS011;5241;47.830;12.972;2023-02-05T03:48:11;10.33;;;7.83;;
10389;SDS011;5241;47.830;12.972;2023-02-05T03:50:51;8.97;;;6.93;;
10389;SDS011;5241;47.830;12.972;2023-02-05T03:53:28;10.90;;;8.20;;
10389;SDS011;5241;47.830;12.972;2023-02-05T03:56:04;10.60;;;7.53;;
10389;SDS011;5241;47.830;12.972;2023-02-05T03:58:39;12.00;;;7.67;;
10389;SDS011;5241;47.830;12.972;2023-02-05T04:01:07;9.90;;;7.03;;
10389;SDS011;5241;47.830;12.972;2023-02-05T04:03:35;11.70;;;7.27;;
10389;SDS011;5241;47.830;12.972;2023-02-05T04:06:01;11.07;;;7.10;;
10389;SDS011;5241;47.830;12.972;2023-02-05T04:08:27;10.90;;;7.63;;
10389;SDS011;5241;47.830;12.972;2023-02-05T04:10:52;11.43;;;7.80;;
10389;SDS011;5241;47.830;12.972;2023-02-05T04:13:18;11.67;;;8.60;;
10389;SDS011;5241;47.830;12.972;2023-02-05T04:15:43;12.40;;;8.53;;
10389;SDS011;5241;47.830;12.972;2023-02-05T04:18:09;13.90;;;8.77;;
10389;SDS011;5241;47.830;12.972;2023-02-05T04:20:34;11.83;;;8.83;;
10389;SDS011;5241;47.830;12.972;2023-02-05T04:23:00;12.53;;;9.00;;
10389;SDS011;5241;47.830;12.972;2023-02-05T04:25:25;12.07;;;8.80;;
10389;SDS011;5241;47.830;12.972;2023-02-05T04:27:52;12.37;;;8.83;;
10389;SDS011;5241;47.830;12.972;2023-02-05T04:30:18;12.43;;;8.60;;
10389;SDS011;5241;47.830;12.972;2023-02-05T04:32:43;12.60;;;8.93;;
10389;SDS011;5241;47.830;12.972;2023-02-05T04:35:09;11.43;;;8.77;;
10389;SDS011;5241;47.830;12.972;2023-02-05T04:37:34;11.73;;;8.53;;
10389;SDS011;5241;47.830;12.972;2023-02-05T04:40:00;11.20;;;8.93;;
10389;SDS011;5241;47.830;12.972;2023-02-05T04:42:26;11.77;;;9.13;;
10389;SDS011;5241;47.830;12.972;2023-02-05T04:44:51;14.00;;;8.80;;
10389;SDS011;5241;47.830;12.972;2023-02-05T04:47:18;12.90;;;9.03;;
10389;SDS011;5241;47.830;12.972;2023-02-05T04:49:44;13.43;;;8.83;;
10389;SDS011;5241;47.830;12.972;2023-02-05T04:52:09;12.63;;;9.13;;
10389;SDS011;5241;47.830;12.972;2023-02-05T04:54:35;14.17;;;8.83;;
10389;SDS011;5241;47.830;12.972;2023-02-05T04:57:01;12.37;;;8.97;;
10389;SDS011;5241;47.830;12.972;2023-02-05T04:59:27;12.87;;;9.63;;
10389;SDS011;5241;47.830;12.972;2023-02-05T05:01:54;13.77;;;9.37;;
10389;SDS011;5241;47.830;12.972;2023-02-05T05:04:20;11.23;;;9.17;;
10389;SDS011;5241;47.830;12.972;2023-02-05T05:06:45;13.63;;;10.13;;
10389;SDS011;5241;47.830;12.972;2023-02-05T05:09:11;17.13;;;10.53;;
10389;SDS011;5241;47.830;12.972;2023-02-05T05:11:36;16.40;;;11.27;;
10389;SDS011;5241;47.830;12.972;2023-02-05T05:14:03;15.40;;;10.70;;
10389;SDS011;5241;47.830;12.972;2023-02-05T05:16:29;15.87;;;10.93;;
10389;SDS011;5241;47.830;12.972;2023-02-05T05:18:54;14.47;;;10.90;;
10389;SDS011;5241;47.830;12.972;2023-02-05T05:21:20;15.83;;;11.23;;
10389;SDS011;5241;47.830;12.972;2023-02-05T05:23:45;15.77;;;11.40;;
10389;SDS011;5241;47.830;12.972;2023-02-05T05:26:11;17.70;;;11.67;;
10389;SDS011;5241;47.830;12.972;2023-02-05T05:28:37;15.57;;;10.80;;
10389;SDS011;5241;47.830;12.972;2023-02-05T05:31:13;14.60;;;10.27;;
10389;SDS011;5241;47.830;12.972;2023-02-05T05:33:43;15.53;;;11.40;;
10389;SDS011;5241;47.830;12.972;2023-02-05T05:36:09;16.33;;;11.37;;
10389;SDS011;5241;47.830;12.972;2023-02-05T05:38:35;16.43;;;11.60;;
10389;SDS011;5241;47.830;12.972;2023-02-05T05:41:01;14.87;;;10.67;;
10389;SDS011;5241;47.830;12.972;2023-02-05T05:43:46;17.10;;;11.40;;
10389;SDS011;5241;47.830;12.972;2023-02-05T05:46:13;16.17;;;11.20;;
10389;SDS011;5241;47.830;12.972;2023-02-05T05:48:46;15.30;;;11.43;;
10389;SDS011;5241;47.830;12.972;2023-02-05T05:51:14;15.27;;;10.73;;
10389;SDS011;5241;47.830;12.972;2023-02-05T05:53:39;17.77;;;11.87;;
10389;SDS011;5241;47.830;12.972;2023-02-05T05:56:05;17.40;;;11.93;;
10389;SDS011;5241;47.830;12.972;2023-02-05T05:58:31;17.33;;;11.57;;
10389;SDS011;5241;47.830;12.972;2023-02-05T06:00:56;16.23;;;11.43;;
10389;SDS011;5241;47.830;12.972;2023-02-05T06:03:22;15.57;;;10.80;;
10389;SDS011;5241;47.830;12.972;2023-02-05T06:05:48;14.37;;;10.73;;
10389;SDS011;5241;47.830;12.972;2023-02-05T06:08:14;14.30;;;10.00;;
10389;SDS011;5241;47.830;12.972;2023-02-05T06:10:40;13.57;;;10.03;;
10389;SDS011;5241;47.830;12.972;2023-02-05T06:13:06;13.13;;;9.37;;
10389;SDS011;5241;47.830;12.972;2023-02-05T06:15:31;12.37;;;9.27;;
10389;SDS011;5241;47.830;12.972;2023-02-05T06:17:57;10.80;;;7.97;;
10389;SDS011;5241;47.830;12.972;2023-02-05T06:20:22;11.83;;;8.60;;
10389;SDS011;5241;47.830;12.972;2023-02-05T06:22:48;12.27;;;8.53;;
10389;SDS011;5241;47.830;12.972;2023-02-05T06:25:14;13.70;;;10.00;;
10389;SDS011;5241;47.830;12.972;2023-02-05T06:27:40;19.00;;;12.43;;
10389;SDS011;5241;47.830;12.972;2023-02-05T06:30:05;24.07;;;15.03;;
10389;SDS011;5241;47.830;12.972;2023-02-05T06:32:31;32.07;;;19.53;;
10389;SDS011;5241;47.830;12.972;2023-02-05T06:34:57;31.90;;;19.37;;
10389;SDS011;5241;47.830;12.972;2023-02-05T06:37:23;20.63;;;13.70;;
10389;SDS011;5241;47.830;12.972;2023-02-05T06:39:53;22.17;;;12.03;;
10389;SDS011;5241;47.830;12.972;2023-02-05T06:42:19;20.27;;;11.20;;
10389;SDS011;5241;47.830;12.972;2023-02-05T06:44:44;16.43;;;9.40;;
10389;SDS011;5241;47.830;12.972;2023-02-05T06:47:10;15.43;;;8.67;;
10389;SDS011;5241;47.830;12.972;2023-02-05T06:49:36;16.67;;;10.20;;
10389;SDS011;5241;47.830;12.972;2023-02-05T06:52:01;15.03;;;10.20;;
10389;SDS011;5241;47.830;12.972;2023-02-05T06:54:27;13.47;;;9.00;;
10389;SDS011;5241;47.830;12.972;2023-02-05T06:56:52;12.10;;;8.47;;
10389;SDS011;5241;47.830;12.972;2023-02-05T06:59:18;12.03;;;8.20;;
10389;SDS011;5241;47.830;12.972;2023-02-05T07:01:43;12.60;;;8.63;;
10389;SDS011;5241;47.830;12.972;2023-02-05T07:04:09;10.40;;;8.17;;
10389;SDS011;5241;47.830;12.972;2023-02-05T07:06:34;9.93;;;7.30;;
10389;SDS011;5241;47.830;12.972;2023-02-05T07:09:00;10.03;;;7.40;;
10389;SDS011;5241;47.830;12.972;2023-02-05T07:11:26;10.97;;;8.07;;
10389;SDS011;5241;47.830;12.972;2023-02-05T07:13:51;11.00;;;8.80;;
10389;SDS011;5241;47.830;12.972;2023-02-05T07:16:17;9.83;;;7.30;;
10389;SDS011;5241;47.830;12.972;2023-02-05T07:18:42;12.63;;;8.93;;
10389;SDS011;5241;47.830;12.972;2023-02-05T07:21:08;10.97;;;8.70;;
10389;SDS011;5241;47.830;12.972;2023-02-05T07:23:37;12.23;;;8.47;;
10389;SDS011;5241;47.830;12.972;2023-02-05T07:26:10;11.93;;;9.27;;
10389;SDS011;5241;47.830;12.972;2023-02-05T07:28:37;11.43;;;9.03;;
10389;SDS011;5241;47.830;12.972;2023-02-05T07:31:04;10.30;;;7.93;;
10389;SDS011;5241;47.830;12.972;2023-02-05T07:33:31;9.97;;;7.40;;
10389;SDS011;5241;47.830;12.972;2023-02-05T07:35:57;15.70;;;10.00;;
10389;SDS011;5241;47.830;12.972;2023-02-05T07:38:29;15.33;;;9.87;;
10389;SDS011;5241;47.830;12.972;2023-02-05T07:40:56;14.77;;;8.63;;
10389;SDS011;5241;47.830;12.972;2023-02-05T07:43:21;14.53;;;10.00;;
10389;SDS011;5241;47.830;12.972;2023-02-05T07:45:54;12.20;;;8.37;;
10389;SDS011;5241;47.830;12.972;2023-02-05T07:48:20;10.73;;;7.23;;
10389;SDS011;5241;47.830;12.972;2023-02-05T07:50:46;10.67;;;6.73;;
10389;SDS011;5241;47.830;12.972;2023-02-05T07:53:11;7.97;;;6.17;;
10389;SDS011;5241;47.830;12.972;2023-02-05T07:55:37;8.93;;;6.77;;
10389;SDS011;5241;47.830;12.972;2023-02-05T07:58:02;9.17;;;6.30;;
10389;SDS011;5241;47.830;12.972;2023-02-05T08:00:28;11.10;;;7.40;;
10389;SDS011;5241;47.830;12.972;2023-02-05T08:02:54;10.57;;;7.97;;
10389;SDS011;5241;47.830;12.972;2023-02-05T08:05:19;12.20;;;7.33;;
10389;SDS011;5241;47.830;12.972;2023-02-05T08:07:45;8.33;;;6.43;;
10389;SDS011;5241;47.830;12.972;2023-02-05T08:10:12;7.83;;;6.00;;
10389;SDS011;5241;47.830;12.972;2023-02-05T08:12:38;6.13;;;5.50;;
10389;SDS011;5241;47.830;12.972;2023-02-05T08:15:04;7.63;;;5.80;;
10389;SDS011;5241;47.830;12.972;2023-02-05T08:17:30;7.50;;;6.00;;
10389;SDS011;5241;47.830;12.972;2023-02-05T08:19:55;6.70;;;4.83;;
10389;SDS011;5241;47.830;12.972;2023-02-05T08:22:21;7.27;;;5.50;;
10389;SDS011;5241;47.830;12.972;2023-02-05T08:24:46;8.70;;;5.83;;
10389;SDS011;5241;47.830;12.972;2023-02-05T08:27:12;7.67;;;5.87;;
10389;SDS011;5241;47.830;12.972;2023-02-05T08:29:37;8.17;;;5.63;;
10389;SDS011;5241;47.830;12.972;2023-02-05T08:32:03;8.50;;;6.40;;
10389;SDS011;5241;47.830;12.972;2023-02-05T08:34:29;8.17;;;6.07;;
10389;SDS011;5241;47.830;12.972;2023-02-05T08:36:54;9.43;;;6.37;;
10389;SDS011;5241;47.830;12.972;2023-02-05T08:39:21;7.50;;;5.33;;
10389;SDS011;5241;47.830;12.972;2023-02-05T08:41:47;7.93;;;5.20;;
10389;SDS011;5241;47.830;12.972;2023-02-05T08:44:12;6.50;;;4.87;;
10389;SDS011;5241;47.830;12.972;2023-02-05T08:46:38;6.27;;;4.93;;
10389;SDS011;5241;47.830;12.972;2023-02-05T08:49:04;6.73;;;4.73;;
10389;SDS011;5241;47.830;12.972;2023-02-05T08:51:30;5.80;;;4.23;;
10389;SDS011;5241;47.830;12.972;2023-02-05T08:53:57;5.47;;;4.37;;
10389;SDS011;5241;47.830;12.972;2023-02-05T08:56:23;5.43;;;4.00;;
10389;SDS011;5241;47.830;12.972;2023-02-05T08:58:49;5.57;;;4.00;;
10389;SDS011;5241;47.830;12.972;2023-02-05T09:01:15;6.27;;;4.00;;
10389;SDS011;5241;47.830;12.972;2023-02-05T09:03:41;6.30;;;4.37;;
10389;SDS011;5241;47.830;12.972;2023-02-05T09:06:08;4.70;;;4.00;;
10389;SDS011;5241;47.830;12.972;2023-02-05T09:08:36;4.57;;;4.03;;
10389;SDS011;5241;47.830;12.972;2023-02-05T09:11:02;18.43;;;8.30;;
10389;SDS011;5241;47.830;12.972;2023-02-05T09:13:28;6.33;;;4.33;;
10389;SDS011;5241;47.830;12.972;2023-02-05T09:15:53;6.90;;;4.30;;
10389;SDS011;5241;47.830;12.972;2023-02-05T09:18:19;5.20;;;3.87;;
10389;SDS011;5241;47.830;12.972;2023-02-05T09:20:46;4.10;;;3.70;;
10389;SDS011;5241;47.830;12.972;2023-02-05T09:23:13;6.17;;;4.23;;
10389;SDS011;5241;47.830;12.972;2023-02-05T09:25:40;6.50;;;3.57;;
10389;SDS011;5241;47.830;12.972;2023-02-05T09:28:06;5.50;;;4.20;;
10389;SDS011;5241;47.830;12.972;2023-02-05T09:30:37;5.17;;;3.73;;
10389;SDS011;5241;47.830;12.972;2023-02-05T09:33:04;5.60;;;3.97;;
10389;SDS011;5241;47.830;12.972;2023-02-05T09:35:30;7.53;;;4.40;;
10389;SDS011;5241;47.830;12.972;2023-02-05T09:37:57;4.90;;;4.00;;
10389;SDS011;5241;47.830;12.972;2023-02-05T09:40:25;5.50;;;4.27;;
10389;SDS011;5241;47.830;12.972;2023-02-05T09:45:57;5.43;;;4.13;;
10389;SDS011;5241;47.830;12.972;2023-02-05T09:51:17;5.97;;;3.03;;
10389;SDS011;5241;47.830;12.972;2023-02-05T09:54:00;3.53;;;3.23;;
10389;SDS011;5241;47.830;12.972;2023-02-05T09:56:31;4.80;;;3.23;;
10389;SDS011;5241;47.830;12.972;2023-02-05T09:58:56;3.87;;;3.47;;
10389;SDS011;5241;47.830;12.972;2023-02-05T10:03:59;3.77;;;3.00;;
10389;SDS011;5241;47.830;12.972;2023-02-05T10:12:04;3.60;;;3.00;;
10389;SDS011;5241;47.830;12.972;2023-02-05T10:17:18;3.53;;;2.53;;
10389;SDS011;5241;47.830;12.972;2023-02-05T10:31:07;3.27;;;2.70;;
10389;SDS011;5241;47.830;12.972;2023-02-05T10:34:17;5.43;;;3.63;;
10389;SDS011;5241;47.830;12.972;2023-02-05T10:37:15;4.63;;;3.13;;
10389;SDS011;5241;47.830;12.972;2023-02-05T10:39:43;3.93;;;3.07;;
10389;SDS011;5241;47.830;12.972;2023-02-05T10:42:15;6.97;;;4.60;;
10389;SDS011;5241;47.830;12.972;2023-02-05T10:44:59;4.50;;;3.20;;
10389;SDS011;5241;47.830;12.972;2023-02-05T10:47:48;4.23;;;3.50;;
10389;SDS011;5241;47.830;12.972;2023-02-05T10:53:27;4.07;;;3.17;;
10389;SDS011;5241;47.830;12.972;2023-02-05T10:55:55;5.03;;;3.53;;
10389;SDS011;5241;47.830;12.972;2023-02-05T11:00:59;3.63;;;3.30;;
10389;SDS011;5241;47.830;12.972;2023-02-05T11:03:26;5.77;;;3.67;;
10389;SDS011;5241;47.830;12.972;2023-02-05T11:05:52;3.63;;;3.33;;
10389;SDS011;5241;47.830;12.972;2023-02-05T11:11:03;8.70;;;6.73;;
10389;SDS011;5241;47.830;12.972;2023-02-05T11:13:30;5.13;;;3.33;;
10389;SDS011;5241;47.830;12.972;2023-02-05T11:15:57;3.00;;;2.30;;
10389;SDS011;5241;47.830;12.972;2023-02-05T11:18:43;6.47;;;3.10;;
10389;SDS011;5241;47.830;12.972;2023-02-05T11:21:11;4.23;;;3.00;;
10389;SDS011;5241;47.830;12.972;2023-02-05T11:23:37;3.43;;;2.07;;
10389;SDS011;5241;47.830;12.972;2023-02-05T11:26:20;8.30;;;3.37;;
10389;SDS011;5241;47.830;12.972;2023-02-05T11:28:47;2.50;;;2.20;;
10389;SDS011;5241;47.830;12.972;2023-02-05T11:36:33;2.63;;;2.10;;
10389;SDS011;5241;47.830;12.972;2023-02-05T11:39:00;2.47;;;2.10;;
10389;SDS011;5241;47.830;12.972;2023-02-05T11:41:38;2.67;;;2.07;;
10389;SDS011;5241;47.830;12.972;2023-02-05T11:44:17;3.10;;;1.80;;
10389;SDS011;5241;47.830;12.972;2023-02-05T11:46:52;3.00;;;2.33;;
10389;SDS011;5241;47.830;12.972;2023-02-05T11:49:21;2.17;;;1.80;;
10389;SDS011;5241;47.830;12.972;2023-02-05T11:52:09;2.07;;;1.77;;
10389;SDS011;5241;47.830;12.972;2023-02-05T11:54:37;2.00;;;1.90;;
10389;SDS011;5241;47.830;12.972;2023-02-05T12:04:49;2.03;;;1.63;;
10389;SDS011;5241;47.830;12.972;2023-02-05T12:07:25;1.90;;;1.73;;
10389;SDS011;5241;47.830;12.972;2023-02-05T12:09:54;3.37;;;2.10;;
10389;SDS011;5241;47.830;12.972;2023-02-05T12:17:38;2.50;;;2.10;;
10389;SDS011;5241;47.830;12.972;2023-02-05T12:20:21;3.57;;;1.90;;
10389;SDS011;5241;47.830;12.972;2023-02-05T12:23:13;3.63;;;2.27;;
10389;SDS011;5241;47.830;12.972;2023-02-05T12:43:41;4.40;;;2.50;;
10389;SDS011;5241;47.830;12.972;2023-02-05T12:57:05;3.50;;;2.00;;
10389;SDS011;5241;47.830;12.972;2023-02-05T13:08:00;2.57;;;2.30;;
10389;SDS011;5241;47.830;12.972;2023-02-05T13:10:45;3.03;;;2.43;;
10389;SDS011;5241;47.830;12.972;2023-02-05T13:13:21;3.97;;;2.17;;
10389;SDS011;5241;47.830;12.972;2023-02-05T13:18:56;3.87;;;2.33;;
10389;SDS011;5241;47.830;12.972;2023-02-05T13:21:25;5.07;;;2.93;;
10389;SDS011;5241;47.830;12.972;2023-02-05T13:24:28;3.13;;;2.43;;
10389;SDS011;5241;47.830;12.972;2023-02-05T13:27:44;2.67;;;2.47;;
10389;SDS011;5241;47.830;12.972;2023-02-05T13:30:36;4.03;;;2.77;;
10389;SDS011;5241;47.830;12.972;2023-02-05T13:33:06;4.00;;;2.77;;
10389;SDS011;5241;47.830;12.972;2023-02-05T13:35:34;3.00;;;2.17;;
10389;SDS011;5241;47.830;12.972;2023-02-05T13:59:43;3.40;;;2.80;;
10389;SDS011;5241;47.830;12.972;2023-02-05T14:05:04;3.23;;;2.67;;
10389;SDS011;5241;47.830;12.972;2023-02-05T14:07:34;3.83;;;2.73;;
10389;SDS011;5241;47.830;12.972;2023-02-05T14:10:06;4.53;;;2.93;;
10389;SDS011;5241;47.830;12.972;2023-02-05T14:12:58;5.30;;;2.83;;
10389;SDS011;5241;47.830;12.972;2023-02-05T14:15:39;4.10;;;3.40;;
10389;SDS011;5241;47.830;12.972;2023-02-05T14:18:08;6.20;;;3.90;;
10389;SDS011;5241;47.830;12.972;2023-02-05T14:20:39;3.73;;;2.90;;
10389;SDS011;5241;47.830;12.972;2023-02-05T14:23:13;5.00;;;3.00;;
10389;SDS011;5241;47.830;12.972;2023-02-05T14:25:44;4.30;;;3.03;;
10389;SDS011;5241;47.830;12.972;2023-02-05T14:31:01;3.77;;;3.17;;
10389;SDS011;5241;47.830;12.972;2023-02-05T14:35:54;3.70;;;2.90;;
10389;SDS011;5241;47.830;12.972;2023-02-05T14:38:38;10.17;;;8.90;;
10389;SDS011;5241;47.830;12.972;2023-02-05T14:41:12;5.30;;;4.10;;
10389;SDS011;5241;47.830;12.972;2023-02-05T14:43:45;4.63;;;3.37;;
10389;SDS011;5241;47.830;12.972;2023-02-05T14:46:27;7.20;;;5.03;;
10389;SDS011;5241;47.830;12.972;2023-02-05T14:48:56;4.53;;;3.60;;
10389;SDS011;5241;47.830;12.972;2023-02-05T14:51:58;3.90;;;2.30;;
10389;SDS011;5241;47.830;12.972;2023-02-05T14:54:19;7.47;;;6.63;;
10389;SDS011;5241;47.830;12.972;2023-02-05T14:56:48;5.23;;;4.30;;
10389;SDS011;5241;47.830;12.972;2023-02-05T14:59:20;7.23;;;4.47;;
10389;SDS011;5241;47.830;12.972;2023-02-05T15:01:53;10.60;;;8.20;;
10389;SDS011;5241;47.830;12.972;2023-02-05T15:04:27;6.47;;;4.07;;
10389;SDS011;5241;47.830;12.972;2023-02-05T15:07:05;12.33;;;7.53;;
10389;SDS011;5241;47.830;12.972;2023-02-05T15:09:36;8.77;;;5.70;;
10389;SDS011;5241;47.830;12.972;2023-02-05T15:14:51;12.37;;;8.87;;
10389;SDS011;5241;47.830;12.972;2023-02-05T15:19:54;22.17;;;18.50;;
10389;SDS011;5241;47.830;12.972;2023-02-05T15:22:35;15.90;;;11.93;;
10389;SDS011;5241;47.830;12.972;2023-02-05T15:25:09;13.80;;;8.30;;
10389;SDS011;5241;47.830;12.972;2023-02-05T15:27:48;37.70;;;18.63;;
10389;SDS011;5241;47.830;12.972;2023-02-05T15:30:23;15.13;;;8.77;;
10389;SDS011;5241;47.830;12.972;2023-02-05T15:33:02;11.90;;;6.73;;
10389;SDS011;5241;47.830;12.972;2023-02-05T15:35:33;13.07;;;7.63;;
10389;SDS011;5241;47.830;12.972;2023-02-05T15:38:03;7.90;;;5.13;;
10389;SDS011;5241;47.830;12.972;2023-02-05T15:40:54;7.40;;;5.10;;
10389;SDS011;5241;47.830;12.972;2023-02-05T15:43:22;7.20;;;5.40;;
10389;SDS011;5241;47.830;12.972;2023-02-05T15:46:02;7.77;;;4.80;;
10389;SDS011;5241;47.830;12.972;2023-02-05T15:48:31;9.67;;;6.27;;
10389;SDS011;5241;47.830;12.972;2023-02-05T15:51:01;11.07;;;7.23;;
10389;SDS011;5241;47.830;12.972;2023-02-05T15:53:38;8.83;;;6.33;;
10389;SDS011;5241;47.830;12.972;2023-02-05T15:59:10;13.13;;;7.77;;
10389;SDS011;5241;47.830;12.972;2023-02-05T16:01:41;9.60;;;7.23;;
10389;SDS011;5241;47.830;12.972;2023-02-05T16:04:17;10.43;;;6.37;;
10389;SDS011;5241;47.830;12.972;2023-02-05T16:06:50;8.70;;;6.20;;
10389;SDS011;5241;47.830;12.972;2023-02-05T16:09:17;11.80;;;6.70;;
10389;SDS011;5241;47.830;12.972;2023-02-05T16:11:44;9.00;;;5.60;;
10389;SDS011;5241;47.830;12.972;2023-02-05T16:14:13;9.57;;;6.43;;
10389;SDS011;5241;47.830;12.972;2023-02-05T16:17:03;11.63;;;7.27;;
10389;SDS011;5241;47.830;12.972;2023-02-05T16:22:25;10.40;;;5.70;;
10389;SDS011;5241;47.830;12.972;2023-02-05T16:24:58;12.57;;;7.10;;
10389;SDS011;5241;47.830;12.972;2023-02-05T16:27:35;10.33;;;7.00;;
10389;SDS011;5241;47.830;12.972;2023-02-05T16:30:06;10.77;;;7.00;;
10389;SDS011;5241;47.830;12.972;2023-02-05T16:32:41;10.47;;;6.90;;
10389;SDS011;5241;47.830;12.972;2023-02-05T16:35:11;12.83;;;6.57;;
10389;SDS011;5241;47.830;12.972;2023-02-05T16:37:53;13.73;;;7.80;;
10389;SDS011;5241;47.830;12.972;2023-02-05T16:42:59;15.10;;;10.57;;
10389;SDS011;5241;47.830;12.972;2023-02-05T16:48:31;22.93;;;13.13;;
10389;SDS011;5241;47.830;12.972;2023-02-05T16:50:58;20.60;;;11.43;;
10389;SDS011;5241;47.830;12.972;2023-02-05T16:53:26;21.90;;;13.30;;
10389;SDS011;5241;47.830;12.972;2023-02-05T16:56:19;23.50;;;14.03;;
10389;SDS011;5241;47.830;12.972;2023-02-05T16:58:46;23.70;;;15.10;;
10389;SDS011;5241;47.830;12.972;2023-02-05T17:01:16;23.37;;;14.83;;
10389;SDS011;5241;47.830;12.972;2023-02-05T17:03:48;20.90;;;13.60;;
10389;SDS011;5241;47.830;12.972;2023-02-05T17:06:15;22.63;;;13.70;;
10389;SDS011;5241;47.830;12.972;2023-02-05T17:08:42;19.70;;;12.07;;
10389;SDS011;5241;47.830;12.972;2023-02-05T17:14:12;39.60;;;19.97;;
10389;SDS011;5241;47.830;12.972;2023-02-05T17:16:55;47.63;;;21.43;;
10389;SDS011;5241;47.830;12.972;2023-02-05T17:19:39;36.57;;;19.43;;
10389;SDS011;5241;47.830;12.972;2023-02-05T17:24:43;27.70;;;15.07;;
10389;SDS011;5241;47.830;12.972;2023-02-05T17:27:14;24.87;;;13.87;;
10389;SDS011;5241;47.830;12.972;2023-02-05T17:29:52;26.80;;;14.20;;
10389;SDS011;5241;47.830;12.972;2023-02-05T17:32:18;20.87;;;12.23;;
10389;SDS011;5241;47.830;12.972;2023-02-05T17:34:45;14.90;;;10.47;;
10389;SDS011;5241;47.830;12.972;2023-02-05T17:37:11;20.63;;;12.03;;
10389;SDS011;5241;47.830;12.972;2023-02-05T17:39:37;31.90;;;18.97;;
10389;SDS011;5241;47.830;12.972;2023-02-05T17:42:02;75.40;;;29.87;;
10389;SDS011;5241;47.830;12.972;2023-02-05T17:44:29;68.53;;;25.50;;